createdAt,value
2019-04-23T00:02:51.177Z,30.40
2019-04-23T00:08:04.575Z,29.93
2019-04-23T00:12:58.881Z,29.80
2019-04-23T00:18:12.453Z,31.97
2019-04-23T00:23:36.352Z,31.10
2019-04-23T00:28:33.468Z,28.90
2019-04-23T00:33:31.425Z,30.07
2019-04-23T00:38:38.714Z,28.97
2019-04-23T00:43:52.149Z,30.43
2019-04-23T00:48:59.208Z,26.43
2019-04-23T00:53:56.626Z,28.63
2019-04-23T00:59:08.368Z,29.27
2019-04-23T01:04:15.721Z,32.00
2019-04-23T01:09:24.182Z,32.80
2019-04-23T01:14:28.937Z,31.97
2019-04-23T01:19:50.336Z,31.20
2019-04-23T01:24:44.062Z,31.47
2019-04-23T01:30:14.821Z,37.07
2019-04-23T01:35:20.346Z,35.73
2019-04-23T01:40:31.972Z,30.33
2019-04-23T01:45:40.971Z,29.93
2019-04-23T01:50:52.227Z,29.77
2019-04-23T01:55:54.421Z,28.80
2019-04-23T02:01:03.311Z,31.60
2019-04-23T02:11:07.947Z,27.47
2019-04-23T02:16:19.180Z,28.20
2019-04-23T02:21:22.581Z,28.03
2019-04-23T02:26:37.190Z,27.33
2019-04-23T02:36:54.466Z,27.10
2019-04-23T02:42:07.303Z,27.47
2019-04-23T02:47:17.415Z,30.70
2019-04-23T02:52:16.091Z,32.37
2019-04-23T03:12:59.156Z,26.53
2019-04-23T03:28:47.118Z,26.50
2019-04-23T03:43:51.584Z,36.50
2019-04-23T03:49:09.634Z,34.20
2019-04-23T03:59:26.587Z,30.13
2019-04-23T04:14:44.645Z,25.57
2019-04-23T04:24:49.136Z,28.10
2019-04-23T04:30:01.252Z,29.23
2019-04-23T04:35:20.966Z,24.17
2019-04-23T04:40:24.141Z,24.07
2019-04-23T04:50:28.459Z,28.20
2019-04-23T04:55:55.674Z,29.27
2019-04-23T05:06:33.860Z,29.80
2019-04-23T05:11:24.132Z,30.43
2019-04-23T05:16:21.483Z,34.20
2019-04-23T05:21:26.785Z,32.67
2019-04-23T05:31:35.064Z,32.23
2019-04-23T05:36:45.726Z,29.60
2019-04-23T05:42:04.417Z,23.23
2019-04-23T05:46:59.911Z,21.83
2019-04-23T05:57:10.317Z,22.03
2019-04-23T06:02:20.375Z,23.03
2019-04-23T06:12:31.696Z,24.93
2019-04-23T06:17:38.102Z,22.37
2019-04-23T06:22:53.392Z,22.90
2019-04-23T06:33:11.592Z,21.90
2019-04-23T06:43:42.022Z,22.10
2019-04-23T06:48:44.936Z,21.97
2019-04-23T06:53:48.632Z,21.50
2019-04-23T06:59:00.823Z,22.13
2019-04-23T07:04:05.248Z,22.47
2019-04-23T07:14:12.558Z,21.90
2019-04-23T07:24:28.616Z,21.53
2019-04-23T07:29:38.985Z,22.77
2019-04-23T07:34:55.304Z,22.90
2019-04-23T07:40:31.257Z,21.03
2019-04-23T07:46:02.342Z,21.93
2019-04-23T07:51:03.720Z,20.27
2019-04-23T07:56:13.088Z,21.23
2019-04-23T08:01:25.163Z,20.60
2019-04-23T08:06:22.042Z,21.83
2019-04-23T08:11:42.344Z,21.33
2019-04-23T08:16:43.831Z,21.70
2019-04-23T08:22:06.670Z,21.13
2019-04-23T08:27:22.391Z,22.87
2019-04-23T08:32:24.245Z,20.82
2019-04-23T08:37:54.377Z,20.70
2019-04-23T08:48:17.324Z,21.10
2019-04-23T08:58:25.053Z,21.00
2019-04-23T09:18:53.049Z,21.33
2019-04-23T09:29:09.572Z,20.37
2019-04-23T09:34:22.340Z,20.53
2019-04-23T09:50:06.461Z,21.57
2019-04-23T09:55:15.889Z,20.77
2019-04-23T10:00:25.675Z,21.10
2019-04-23T10:05:12.565Z,20.85
2019-04-23T10:10:05.296Z,21.30
2019-04-23T10:15:18.565Z,21.10
2019-04-23T10:20:20.463Z,20.68
2019-04-23T10:25:27.879Z,19.87
2019-04-23T10:30:33.185Z,22.37
2019-04-23T10:35:49.199Z,20.35
2019-04-23T10:40:49.765Z,19.40
2019-04-23T10:46:42.968Z,19.73
2019-04-23T17:07:36.854Z,26.48
2019-04-23T17:12:46.309Z,24.00
2019-04-23T17:17:48.863Z,24.12
2019-04-23T17:23:27.052Z,24.02
2019-04-23T17:28:24.675Z,23.40
2019-04-23T17:33:38.315Z,22.97
2019-04-23T17:43:59.867Z,22.37
2019-04-23T17:48:57.279Z,21.82
2019-04-23T17:54:32.224Z,21.93
2019-04-23T18:05:06.322Z,22.95
2019-04-23T18:10:24.676Z,22.13
2019-04-23T18:15:15.574Z,21.60
2019-04-23T18:20:52.171Z,22.45
2019-04-23T18:25:59.657Z,22.20
2019-04-23T18:31:12.952Z,22.30
2019-04-23T18:36:19.780Z,22.30
2019-04-23T18:41:29.575Z,21.57
2019-04-23T18:46:53.462Z,21.47
2019-04-23T18:51:49.712Z,21.13
2019-04-23T18:57:32.160Z,20.63
2019-04-23T19:08:08.651Z,20.70
2019-04-23T19:13:11.371Z,20.50
2019-04-23T19:18:22.236Z,22.37
2019-04-23T19:23:34.335Z,21.63
2019-04-23T19:33:56.868Z,23.13
2019-04-23T19:38:57.902Z,21.10
2019-04-23T19:44:01.170Z,21.20
2019-04-23T19:49:09.866Z,22.33
2019-04-23T19:54:28.561Z,21.93
2019-04-23T19:59:32.079Z,18.93
2019-04-23T20:04:42.269Z,19.23
2019-04-23T20:09:51.583Z,21.77
2019-04-23T20:14:52.198Z,20.57
2019-04-23T20:19:54.887Z,20.63
2019-04-23T20:25:39.370Z,21.80
2019-04-23T20:31:05.274Z,22.47
2019-04-23T20:35:39.563Z,30.17
2019-04-23T20:45:58.816Z,20.60
2019-04-23T20:50:56.472Z,20.27
2019-04-23T21:01:46.811Z,24.43
2019-04-23T21:12:04.205Z,24.53
2019-04-23T21:17:05.441Z,28.77
2019-04-23T21:22:20.525Z,19.33
2019-04-23T21:32:53.358Z,21.00
2019-04-23T21:43:16.755Z,20.90
2019-04-23T21:48:34.664Z,21.10
2019-04-23T21:53:25.017Z,22.37
2019-04-23T21:58:48.967Z,21.30
2019-04-23T22:03:52.926Z,19.60
2019-04-23T22:08:52.427Z,18.27
2019-04-23T22:14:05.595Z,20.37
2019-04-23T22:19:10.708Z,20.30
2019-04-23T22:24:08.701Z,19.63
2019-04-23T22:29:18.802Z,18.77
2019-04-23T22:34:22.089Z,19.80
2019-04-23T22:39:32.050Z,19.97
2019-04-23T22:44:56.167Z,20.10
2019-04-23T22:55:13.490Z,19.90
2019-04-23T23:00:30.056Z,21.27
2019-04-23T23:06:08.310Z,19.87
2019-04-23T23:16:05.597Z,22.50
2019-04-23T23:21:06.478Z,23.73
2019-04-23T23:31:22.504Z,23.83
2019-04-23T23:36:40.055Z,26.43
2019-04-23T23:41:40.469Z,28.80
2019-04-23T23:51:57.282Z,26.80
2019-04-23T23:57:06.287Z,27.07
